Conesus, New York
Current Conditions -  °F | °C
As of 11:05 AM on Tuesday 21 Oct 2014 (Local Time) from KDSV Reporting Station
Overcast Overcast  
Wind Chill: 50°   Ceiling: 1500
Heat Index: 50°   Visibility: 10mi
Dew Point: 49°   Wind: 0mph
Humidity: 96%   Direction: NA
Pressure: 29.86"   Gusts: NA
Location:  42.72°N, 77.68°W
Report Text: KDSV 211505Z AUTO 00000KT 10SM OVC015 10/09 A2986 RMK AO2 T01000094
Loading
Personal Weather Stations






























Interactive Weather Map
Tropical Storm Tracking
New forecast layout! Learn more

10-Day Weather Forecast

Advertisements
Track Severe Weather on mobile